METAR Data
IDs: Format: Raw Decoded Include TAF

Data at: 0312 UTC 10 Dec 2022

METAR for:KFDY (Findlay Arpt, OH, US)
Text:KFDY 100253Z AUTO 05011KT 8SM BKN009 OVC031 03/02 A3019 RMK AO2 CIG 007V012 SLP224 60000 T00330017 53005
Temperature: 3.3°C ( 38°F)
Dewpoint: 1.7°C ( 35°F) [RH = 89%]
Pressure (altimeter):30.19 inches Hg (1022.4 mb) [Sea level pressure: 1022.4 mb]
Winds:from the NE (50 degrees) at 13 MPH (11 knots; 5.7 m/s)
Visibility: 8 sm ( 13 km)
Ceiling:900 feet AGL
Clouds: broken clouds at 900 feet AGL, overcast cloud deck at 3100 feet AGL
QC Flag:automated observation with no human augmentation